KCKN

Crookston Municipal Kirkwood Field Airport

Crookston, Minnesota, USA
METAR KCKN 140455Z AUTO 16007KT 10SM BKN055 M08/M11 A3031 RMK AO2
Observed Flight Rules
Nov-14 @ 04:55 UTC (11 minutes ago) Visual Flight Rules
Wind Visibility Clouds
160° at 7 knots 10 miles
  • Broken at 5,500' AGL
Temperatures Readings
Current -8°C / 18°F
Dewpoint -11°C / 12°F
Humidity 79%
Altimeter 30.31" Hg
Pressure 1026 hPa
Elevation 273
METAR KCKN 140455Z AUTO 16007KT 10SM BKN055 M08/M11 A3031 RMK AO2
Observed Flight Rules
Nov-14 @ 04:55 UTC
(11 minutes ago)
VFR
Wind Visibility
160° at 7 knots 10 miles
Clouds
  • Broken at 5,500' AGL
Temperature Dewpoint
-8°C / 18°F -11°C / 12°F
Humidity Altimeter Pressure
79% 30.31" Hg 1026 hPa